sensor_id;sensor_type;location;lat;lon;timestamp;pressure;altitude;pressure_sealevel;temperature;humidity
29163;BME280;20331;53.144;8.208;2022-09-24T00:05:51;101107.19;;;13.20;100.00
29163;BME280;20331;53.144;8.208;2022-09-24T00:16:15;101109.28;;;13.15;100.00
29163;BME280;20331;53.144;8.208;2022-09-24T00:26:36;101101.22;;;13.18;100.00
29163;BME280;20331;53.144;8.208;2022-09-24T00:37:10;101103.25;;;13.15;100.00
29163;BME280;20331;53.144;8.208;2022-09-24T00:47:36;101090.38;;;12.99;100.00
29163;BME280;20331;53.144;8.208;2022-09-24T00:58:02;101087.34;;;13.05;100.00
29163;BME280;20331;53.144;8.208;2022-09-24T01:08:24;101079.09;;;12.99;100.00
29163;BME280;20331;53.144;8.208;2022-09-24T01:18:48;101077.75;;;12.93;100.00
29163;BME280;20331;53.144;8.208;2022-09-24T01:39:57;101054.47;;;13.01;100.00
29163;BME280;20331;53.144;8.208;2022-09-24T01:50:23;101040.56;;;12.88;100.00
29163;BME280;20331;53.144;8.208;2022-09-24T02:00:47;101033.97;;;12.95;100.00
29163;BME280;20331;53.144;8.208;2022-09-24T02:21:35;101024.97;;;12.87;100.00
29163;BME280;20331;53.144;8.208;2022-09-24T02:31:59;101023.50;;;12.95;100.00
29163;BME280;20331;53.144;8.208;2022-09-24T02:42:21;101017.56;;;12.93;100.00
29163;BME280;20331;53.144;8.208;2022-09-24T02:52:43;101013.25;;;12.92;100.00
29163;BME280;20331;53.144;8.208;2022-09-24T03:03:04;100999.72;;;12.98;100.00
29163;BME280;20331;53.144;8.208;2022-09-24T03:13:26;100993.34;;;13.02;100.00
29163;BME280;20331;53.144;8.208;2022-09-24T03:23:48;101008.75;;;12.94;100.00
29163;BME280;20331;53.144;8.208;2022-09-24T03:34:09;100990.94;;;12.99;100.00
29163;BME280;20331;53.144;8.208;2022-09-24T03:44:31;100981.38;;;13.11;100.00
29163;BME280;20331;53.144;8.208;2022-09-24T03:54:52;100979.09;;;13.06;100.00
29163;BME280;20331;53.144;8.208;2022-09-24T04:05:15;100974.84;;;13.16;100.00
29163;BME280;20331;53.144;8.208;2022-09-24T04:15:36;100975.28;;;13.10;100.00
29163;BME280;20331;53.144;8.208;2022-09-24T04:25:58;100974.13;;;13.14;100.00
29163;BME280;20331;53.144;8.208;2022-09-24T04:36:23;100971.28;;;13.17;100.00
29163;BME280;20331;53.144;8.208;2022-09-24T04:46:44;100957.38;;;13.17;100.00
29163;BME280;20331;53.144;8.208;2022-09-24T04:57:06;100957.47;;;13.15;100.00
29163;BME280;20331;53.144;8.208;2022-09-24T05:07:28;100958.94;;;13.19;100.00
29163;BME280;20331;53.144;8.208;2022-09-24T05:17:49;100960.00;;;13.17;100.00
29163;BME280;20331;53.144;8.208;2022-09-24T05:28:11;100960.22;;;13.14;100.00
29163;BME280;20331;53.144;8.208;2022-09-24T05:38:32;100957.69;;;13.12;100.00
29163;BME280;20331;53.144;8.208;2022-09-24T05:48:54;100964.22;;;13.07;100.00
29163;BME280;20331;53.144;8.208;2022-09-24T05:59:16;100972.34;;;13.15;100.00
29163;BME280;20331;53.144;8.208;2022-09-24T06:09:37;100967.28;;;13.24;100.00
29163;BME280;20331;53.144;8.208;2022-09-24T06:19:59;100982.19;;;13.11;100.00
29163;BME280;20331;53.144;8.208;2022-09-24T06:30:20;100975.16;;;13.24;100.00
29163;BME280;20331;53.144;8.208;2022-09-24T06:40:43;100985.88;;;13.32;100.00
29163;BME280;20331;53.144;8.208;2022-09-24T06:51:06;100990.16;;;13.33;100.00
29163;BME280;20331;53.144;8.208;2022-09-24T07:01:27;100997.56;;;13.39;100.00
29163;BME280;20331;53.144;8.208;2022-09-24T07:11:49;100995.44;;;13.44;100.00
29163;BME280;20331;53.144;8.208;2022-09-24T07:22:11;100997.16;;;13.33;100.00
29163;BME280;20331;53.144;8.208;2022-09-24T07:32:32;101003.13;;;13.58;100.00
29163;BME280;20331;53.144;8.208;2022-09-24T07:42:55;101007.16;;;13.51;100.00
29163;BME280;20331;53.144;8.208;2022-09-24T07:53:17;101011.72;;;13.60;100.00
29163;BME280;20331;53.144;8.208;2022-09-24T08:03:38;101010.88;;;13.59;100.00
29163;BME280;20331;53.144;8.208;2022-09-24T08:14:01;101011.72;;;13.60;100.00
29163;BME280;20331;53.144;8.208;2022-09-24T08:24:22;101013.69;;;13.80;100.00
29163;BME280;20331;53.144;8.208;2022-09-24T08:34:44;101021.06;;;13.75;100.00
29163;BME280;20331;53.144;8.208;2022-09-24T08:45:06;101014.44;;;13.93;100.00
29163;BME280;20331;53.144;8.208;2022-09-24T08:55:50;101022.69;;;14.10;100.00
29163;BME280;20331;53.144;8.208;2022-09-24T09:17:05;101018.44;;;14.20;100.00
29163;BME280;20331;53.144;8.208;2022-09-24T09:27:32;101028.38;;;14.39;100.00
29163;BME280;20331;53.144;8.208;2022-09-24T09:38:11;101027.41;;;14.29;100.00
29163;BME280;20331;53.144;8.208;2022-09-24T09:48:47;101027.66;;;14.37;100.00
29163;BME280;20331;53.144;8.208;2022-09-24T10:09:32;101017.28;;;14.57;100.00
29163;BME280;20331;53.144;8.208;2022-09-24T10:19:54;101021.31;;;14.83;100.00
29163;BME280;20331;53.144;8.208;2022-09-24T10:30:17;101029.09;;;14.95;100.00
29163;BME280;20331;53.144;8.208;2022-09-24T10:40:54;101014.94;;;15.18;100.00
29163;BME280;20331;53.144;8.208;2022-09-24T11:01:50;101017.59;;;15.07;100.00
29163;BME280;20331;53.144;8.208;2022-09-24T11:12:58;101007.69;;;15.11;100.00
29163;BME280;20331;53.144;8.208;2022-09-24T11:55:39;101025.16;;;15.43;100.00
29163;BME280;20331;53.144;8.208;2022-09-24T12:06:09;101013.59;;;15.45;100.00
29163;BME280;20331;53.144;8.208;2022-09-24T12:16:36;101013.00;;;15.42;100.00
29163;BME280;20331;53.144;8.208;2022-09-24T12:27:02;101004.59;;;15.48;100.00
29163;BME280;20331;53.144;8.208;2022-09-24T12:37:30;101013.19;;;15.50;100.00
29163;BME280;20331;53.144;8.208;2022-09-24T12:47:57;101013.38;;;15.58;100.00
29163;BME280;20331;53.144;8.208;2022-09-24T12:58:28;101003.72;;;15.58;100.00
29163;BME280;20331;53.144;8.208;2022-09-24T13:08:50;100993.94;;;15.81;100.00
29163;BME280;20331;53.144;8.208;2022-09-24T13:29:45;100994.69;;;15.72;100.00
29163;BME280;20331;53.144;8.208;2022-09-24T13:40:16;100987.78;;;15.71;100.00
29163;BME280;20331;53.144;8.208;2022-09-24T13:50:47;100993.94;;;16.01;100.00
29163;BME280;20331;53.144;8.208;2022-09-24T14:01:23;100992.41;;;15.99;100.00
29163;BME280;20331;53.144;8.208;2022-09-24T14:11:52;100999.69;;;15.75;100.00
29163;BME280;20331;53.144;8.208;2022-09-24T14:22:24;101003.25;;;15.64;100.00
29163;BME280;20331;53.144;8.208;2022-09-24T14:32:58;100999.03;;;15.42;100.00
29163;BME280;20331;53.144;8.208;2022-09-24T14:43:30;101004.94;;;15.12;100.00
29163;BME280;20331;53.144;8.208;2022-09-24T15:04:22;101017.88;;;14.82;100.00
29163;BME280;20331;53.144;8.208;2022-09-24T15:14:54;101024.56;;;14.64;100.00
29163;BME280;20331;53.144;8.208;2022-09-24T15:25:16;101030.28;;;14.58;100.00
29163;BME280;20331;53.144;8.208;2022-09-24T15:35:38;101033.94;;;14.23;100.00
29163;BME280;20331;53.144;8.208;2022-09-24T15:46:04;101042.66;;;14.24;100.00
29163;BME280;20331;53.144;8.208;2022-09-24T15:56:26;101041.94;;;14.22;100.00
29163;BME280;20331;53.144;8.208;2022-09-24T16:06:48;101047.78;;;14.14;100.00
29163;BME280;20331;53.144;8.208;2022-09-24T16:17:10;101052.97;;;14.03;100.00
29163;BME280;20331;53.144;8.208;2022-09-24T16:27:33;101057.25;;;14.04;100.00
29163;BME280;20331;53.144;8.208;2022-09-24T16:37:55;101073.78;;;13.94;100.00
29163;BME280;20331;53.144;8.208;2022-09-24T16:48:17;101068.78;;;14.02;100.00
29163;BME280;20331;53.144;8.208;2022-09-24T16:58:42;101079.03;;;13.94;100.00
29163;BME280;20331;53.144;8.208;2022-09-24T17:09:04;101085.47;;;14.01;100.00
29163;BME280;20331;53.144;8.208;2022-09-24T17:19:44;101092.84;;;13.96;100.00
29163;BME280;20331;53.144;8.208;2022-09-24T17:30:06;101100.81;;;13.94;100.00
29163;BME280;20331;53.144;8.208;2022-09-24T17:40:28;101109.75;;;13.92;100.00
29163;BME280;20331;53.144;8.208;2022-09-24T17:50:54;101113.28;;;13.80;100.00
29163;BME280;20331;53.144;8.208;2022-09-24T18:01:21;101117.78;;;13.78;100.00
29163;BME280;20331;53.144;8.208;2022-09-24T18:11:48;101126.59;;;13.77;100.00
29163;BME280;20331;53.144;8.208;2022-09-24T18:22:10;101143.25;;;13.76;100.00
29163;BME280;20331;53.144;8.208;2022-09-24T18:32:32;101152.06;;;13.75;100.00
29163;BME280;20331;53.144;8.208;2022-09-24T18:42:54;101169.69;;;13.73;100.00
29163;BME280;20331;53.144;8.208;2022-09-24T18:53:18;101170.00;;;13.68;100.00
29163;BME280;20331;53.144;8.208;2022-09-24T19:03:39;101171.91;;;13.66;100.00
29163;BME280;20331;53.144;8.208;2022-09-24T19:14:03;101186.06;;;13.64;100.00
29163;BME280;20331;53.144;8.208;2022-09-24T19:24:25;101195.81;;;13.62;100.00
29163;BME280;20331;53.144;8.208;2022-09-24T19:34:46;101199.09;;;13.53;100.00
29163;BME280;20331;53.144;8.208;2022-09-24T19:45:09;101195.28;;;13.57;100.00
29163;BME280;20331;53.144;8.208;2022-09-24T19:55:33;101207.91;;;13.52;100.00
29163;BME280;20331;53.144;8.208;2022-09-24T20:05:55;101212.81;;;13.44;100.00
29163;BME280;20331;53.144;8.208;2022-09-24T20:16:21;101193.63;;;13.56;100.00
29163;BME280;20331;53.144;8.208;2022-09-24T20:26:46;101197.56;;;13.61;100.00
29163;BME280;20331;53.144;8.208;2022-09-24T20:37:26;101212.91;;;13.55;100.00
29163;BME280;20331;53.144;8.208;2022-09-24T20:47:48;101212.69;;;13.58;100.00
29163;BME280;20331;53.144;8.208;2022-09-24T20:58:10;101217.72;;;13.61;100.00
29163;BME280;20331;53.144;8.208;2022-09-24T21:08:33;101228.84;;;13.52;100.00
29163;BME280;20331;53.144;8.208;2022-09-24T21:18:54;101220.16;;;13.39;100.00
29163;BME280;20331;53.144;8.208;2022-09-24T21:29:17;101218.78;;;13.46;100.00
29163;BME280;20331;53.144;8.208;2022-09-24T21:39:41;101219.13;;;13.29;100.00
29163;BME280;20331;53.144;8.208;2022-09-24T21:50:05;101224.06;;;13.21;100.00
29163;BME280;20331;53.144;8.208;2022-09-24T22:00:26;101220.28;;;13.38;100.00
29163;BME280;20331;53.144;8.208;2022-09-24T22:10:48;101226.44;;;13.37;100.00
29163;BME280;20331;53.144;8.208;2022-09-24T22:21:12;101218.81;;;13.34;100.00
29163;BME280;20331;53.144;8.208;2022-09-24T22:31:34;101208.31;;;13.34;100.00
29163;BME280;20331;53.144;8.208;2022-09-24T22:41:55;101219.25;;;13.15;100.00
29163;BME280;20331;53.144;8.208;2022-09-24T22:52:17;101212.88;;;13.19;100.00
29163;BME280;20331;53.144;8.208;2022-09-24T23:02:38;101211.28;;;13.29;100.00
29163;BME280;20331;53.144;8.208;2022-09-24T23:13:00;101212.13;;;13.17;100.00
29163;BME280;20331;53.144;8.208;2022-09-24T23:23:21;101217.38;;;13.30;100.00
29163;BME280;20331;53.144;8.208;2022-09-24T23:33:43;101214.84;;;13.03;100.00
29163;BME280;20331;53.144;8.208;2022-09-24T23:44:05;101206.06;;;13.04;100.00
29163;BME280;20331;53.144;8.208;2022-09-24T23:54:26;101201.03;;;13.01;100.00
